sensor_id;sensor_type;location;lat;lon;timestamp;P1;durP1;ratioP1;P2;durP2;ratioP2
20203;SDS011;10261;49.010;12.034;2022-12-18T00:00:14;41.65;;;17.58;;
20203;SDS011;10261;49.010;12.034;2022-12-18T00:01:18;30.98;;;16.40;;
20203;SDS011;10261;49.010;12.034;2022-12-18T00:02:22;41.90;;;17.73;;
20203;SDS011;10261;49.010;12.034;2022-12-18T00:03:25;31.42;;;16.17;;
20203;SDS011;10261;49.010;12.034;2022-12-18T00:04:27;37.03;;;17.10;;
20203;SDS011;10261;49.010;12.034;2022-12-18T00:05:30;33.63;;;17.58;;
20203;SDS011;10261;49.010;12.034;2022-12-18T00:06:33;41.78;;;17.35;;
20203;SDS011;10261;49.010;12.034;2022-12-18T00:07:37;39.03;;;18.10;;
20203;SDS011;10261;49.010;12.034;2022-12-18T00:08:39;36.35;;;17.00;;
20203;SDS011;10261;49.010;12.034;2022-12-18T00:09:43;32.20;;;15.57;;
20203;SDS011;10261;49.010;12.034;2022-12-18T00:10:45;33.83;;;17.98;;
20203;SDS011;10261;49.010;12.034;2022-12-18T00:11:48;42.00;;;17.73;;
20203;SDS011;10261;49.010;12.034;2022-12-18T00:12:50;33.00;;;15.57;;
20203;SDS011;10261;49.010;12.034;2022-12-18T00:13:54;35.40;;;16.60;;
20203;SDS011;10261;49.010;12.034;2022-12-18T00:14:57;36.45;;;17.27;;
20203;SDS011;10261;49.010;12.034;2022-12-18T00:16:01;29.00;;;15.25;;
20203;SDS011;10261;49.010;12.034;2022-12-18T00:17:03;40.13;;;18.73;;
20203;SDS011;10261;49.010;12.034;2022-12-18T00:18:06;33.38;;;17.25;;
20203;SDS011;10261;49.010;12.034;2022-12-18T00:19:08;40.83;;;17.15;;
20203;SDS011;10261;49.010;12.034;2022-12-18T00:20:13;37.70;;;16.55;;
20203;SDS011;10261;49.010;12.034;2022-12-18T00:21:15;33.53;;;16.45;;
20203;SDS011;10261;49.010;12.034;2022-12-18T00:22:18;36.90;;;16.90;;
20203;SDS011;10261;49.010;12.034;2022-12-18T00:23:21;39.42;;;16.67;;
20203;SDS011;10261;49.010;12.034;2022-12-18T00:24:23;29.90;;;15.15;;
20203;SDS011;10261;49.010;12.034;2022-12-18T00:25:27;31.67;;;16.75;;
20203;SDS011;10261;49.010;12.034;2022-12-18T00:26:30;32.95;;;18.13;;
20203;SDS011;10261;49.010;12.034;2022-12-18T00:27:34;36.05;;;15.98;;
20203;SDS011;10261;49.010;12.034;2022-12-18T00:28:36;35.97;;;16.63;;
20203;SDS011;10261;49.010;12.034;2022-12-18T00:29:39;29.10;;;14.77;;
20203;SDS011;10261;49.010;12.034;2022-12-18T00:30:41;35.65;;;17.05;;
20203;SDS011;10261;49.010;12.034;2022-12-18T00:31:44;37.75;;;16.67;;
20203;SDS011;10261;49.010;12.034;2022-12-18T00:32:46;37.00;;;15.90;;
20203;SDS011;10261;49.010;12.034;2022-12-18T00:33:50;35.30;;;16.40;;
20203;SDS011;10261;49.010;12.034;2022-12-18T00:34:55;35.97;;;15.85;;
20203;SDS011;10261;49.010;12.034;2022-12-18T00:36:00;34.13;;;16.50;;
20203;SDS011;10261;49.010;12.034;2022-12-18T00:37:02;34.80;;;16.48;;
20203;SDS011;10261;49.010;12.034;2022-12-18T00:38:05;31.13;;;14.85;;
20203;SDS011;10261;49.010;12.034;2022-12-18T00:39:07;34.63;;;15.40;;
20203;SDS011;10261;49.010;12.034;2022-12-18T00:40:11;35.08;;;17.35;;
20203;SDS011;10261;49.010;12.034;2022-12-18T00:41:16;32.75;;;16.73;;
20203;SDS011;10261;49.010;12.034;2022-12-18T00:42:40;28.85;;;13.70;;
20203;SDS011;10261;49.010;12.034;2022-12-18T00:43:57;32.28;;;14.50;;
20203;SDS011;10261;49.010;12.034;2022-12-18T00:44:59;29.83;;;14.80;;
20203;SDS011;10261;49.010;12.034;2022-12-18T00:46:05;39.60;;;16.80;;
20203;SDS011;10261;49.010;12.034;2022-12-18T00:47:07;37.10;;;17.33;;
20203;SDS011;10261;49.010;12.034;2022-12-18T00:48:10;31.25;;;14.05;;
20203;SDS011;10261;49.010;12.034;2022-12-18T00:49:12;34.47;;;16.17;;
20203;SDS011;10261;49.010;12.034;2022-12-18T00:50:16;37.30;;;16.83;;
20203;SDS011;10261;49.010;12.034;2022-12-18T00:51:18;36.90;;;17.92;;
20203;SDS011;10261;49.010;12.034;2022-12-18T00:52:21;37.17;;;17.10;;
20203;SDS011;10261;49.010;12.034;2022-12-18T00:53:23;33.47;;;16.08;;
20203;SDS011;10261;49.010;12.034;2022-12-18T00:54:26;31.23;;;13.80;;
20203;SDS011;10261;49.010;12.034;2022-12-18T00:55:28;31.10;;;14.18;;
20203;SDS011;10261;49.010;12.034;2022-12-18T00:56:32;33.45;;;16.33;;
20203;SDS011;10261;49.010;12.034;2022-12-18T00:57:39;34.25;;;15.93;;
20203;SDS011;10261;49.010;12.034;2022-12-18T00:58:42;32.33;;;15.98;;
20203;SDS011;10261;49.010;12.034;2022-12-18T00:59:45;32.38;;;15.35;;
20203;SDS011;10261;49.010;12.034;2022-12-18T01:00:48;38.80;;;17.05;;
20203;SDS011;10261;49.010;12.034;2022-12-18T01:01:50;34.90;;;16.48;;
20203;SDS011;10261;49.010;12.034;2022-12-18T01:02:53;35.55;;;16.23;;
20203;SDS011;10261;49.010;12.034;2022-12-18T01:03:55;32.15;;;16.42;;
20203;SDS011;10261;49.010;12.034;2022-12-18T01:04:58;31.83;;;14.30;;
20203;SDS011;10261;49.010;12.034;2022-12-18T01:06:05;35.53;;;16.77;;
20203;SDS011;10261;49.010;12.034;2022-12-18T01:07:08;33.60;;;15.85;;
20203;SDS011;10261;49.010;12.034;2022-12-18T01:08:10;30.65;;;14.45;;
20203;SDS011;10261;49.010;12.034;2022-12-18T01:09:13;33.10;;;15.77;;
20203;SDS011;10261;49.010;12.034;2022-12-18T01:10:15;37.15;;;16.20;;
20203;SDS011;10261;49.010;12.034;2022-12-18T01:11:19;37.97;;;15.90;;
20203;SDS011;10261;49.010;12.034;2022-12-18T01:12:23;32.88;;;15.18;;
20203;SDS011;10261;49.010;12.034;2022-12-18T01:13:26;29.88;;;13.95;;
20203;SDS011;10261;49.010;12.034;2022-12-18T01:14:28;30.95;;;13.43;;
20203;SDS011;10261;49.010;12.034;2022-12-18T01:15:31;29.75;;;14.23;;
20203;SDS011;10261;49.010;12.034;2022-12-18T01:16:33;29.52;;;13.38;;
20203;SDS011;10261;49.010;12.034;2022-12-18T01:17:37;37.00;;;15.00;;
20203;SDS011;10261;49.010;12.034;2022-12-18T01:18:39;29.33;;;14.32;;
20203;SDS011;10261;49.010;12.034;2022-12-18T01:19:42;27.02;;;13.60;;
20203;SDS011;10261;49.010;12.034;2022-12-18T01:20:44;30.38;;;15.27;;
20203;SDS011;10261;49.010;12.034;2022-12-18T01:21:47;30.67;;;14.40;;
20203;SDS011;10261;49.010;12.034;2022-12-18T01:22:48;34.90;;;15.43;;
20203;SDS011;10261;49.010;12.034;2022-12-18T01:23:52;32.40;;;14.55;;
20203;SDS011;10261;49.010;12.034;2022-12-18T01:24:56;29.80;;;14.15;;
20203;SDS011;10261;49.010;12.034;2022-12-18T01:26:03;35.90;;;15.32;;
20203;SDS011;10261;49.010;12.034;2022-12-18T01:27:06;31.02;;;14.13;;
20203;SDS011;10261;49.010;12.034;2022-12-18T01:28:10;25.55;;;13.07;;
20203;SDS011;10261;49.010;12.034;2022-12-18T01:29:12;27.85;;;14.68;;
20203;SDS011;10261;49.010;12.034;2022-12-18T01:30:15;33.45;;;13.70;;
20203;SDS011;10261;49.010;12.034;2022-12-18T01:31:18;25.25;;;12.80;;
20203;SDS011;10261;49.010;12.034;2022-12-18T01:32:22;31.38;;;13.68;;
20203;SDS011;10261;49.010;12.034;2022-12-18T01:33:24;35.80;;;14.98;;
20203;SDS011;10261;49.010;12.034;2022-12-18T01:34:27;32.00;;;13.88;;
20203;SDS011;10261;49.010;12.034;2022-12-18T01:35:29;33.33;;;15.73;;
20203;SDS011;10261;49.010;12.034;2022-12-18T01:36:33;32.63;;;15.50;;
20203;SDS011;10261;49.010;12.034;2022-12-18T01:37:36;30.70;;;14.32;;
20203;SDS011;10261;49.010;12.034;2022-12-18T01:38:39;35.58;;;14.43;;
20203;SDS011;10261;49.010;12.034;2022-12-18T01:39:41;28.48;;;13.93;;
20203;SDS011;10261;49.010;12.034;2022-12-18T01:40:44;29.85;;;14.25;;
20203;SDS011;10261;49.010;12.034;2022-12-18T01:41:46;25.92;;;12.75;;
20203;SDS011;10261;49.010;12.034;2022-12-18T01:43:04;29.23;;;14.25;;
20203;SDS011;10261;49.010;12.034;2022-12-18T01:45:44;34.35;;;14.48;;
20203;SDS011;10261;49.010;12.034;2022-12-18T01:46:46;24.20;;;13.18;;
20203;SDS011;10261;49.010;12.034;2022-12-18T01:47:49;36.45;;;16.00;;
20203;SDS011;10261;49.010;12.034;2022-12-18T01:48:54;34.70;;;13.10;;
20203;SDS011;10261;49.010;12.034;2022-12-18T01:50:00;25.20;;;12.82;;
20203;SDS011;10261;49.010;12.034;2022-12-18T01:51:06;29.42;;;14.60;;
20203;SDS011;10261;49.010;12.034;2022-12-18T01:52:11;25.15;;;13.23;;
20203;SDS011;10261;49.010;12.034;2022-12-18T01:53:15;30.33;;;12.77;;
20203;SDS011;10261;49.010;12.034;2022-12-18T01:54:19;24.45;;;12.50;;
20203;SDS011;10261;49.010;12.034;2022-12-18T01:55:22;29.17;;;14.25;;
20203;SDS011;10261;49.010;12.034;2022-12-18T01:56:27;28.58;;;13.15;;
20203;SDS011;10261;49.010;12.034;2022-12-18T01:57:30;34.10;;;14.07;;
20203;SDS011;10261;49.010;12.034;2022-12-18T01:58:35;35.03;;;16.65;;
20203;SDS011;10261;49.010;12.034;2022-12-18T01:59:42;31.38;;;15.93;;
20203;SDS011;10261;49.010;12.034;2022-12-18T02:00:50;33.85;;;15.80;;
20203;SDS011;10261;49.010;12.034;2022-12-18T02:01:52;32.75;;;16.13;;
20203;SDS011;10261;49.010;12.034;2022-12-18T02:02:56;33.05;;;15.90;;
20203;SDS011;10261;49.010;12.034;2022-12-18T02:04:13;29.05;;;14.52;;
20203;SDS011;10261;49.010;12.034;2022-12-18T02:05:23;28.05;;;13.95;;
20203;SDS011;10261;49.010;12.034;2022-12-18T02:06:35;28.60;;;14.35;;
20203;SDS011;10261;49.010;12.034;2022-12-18T02:07:46;26.35;;;13.95;;
20203;SDS011;10261;49.010;12.034;2022-12-18T02:08:58;29.63;;;13.77;;
20203;SDS011;10261;49.010;12.034;2022-12-18T02:10:13;30.70;;;13.50;;
20203;SDS011;10261;49.010;12.034;2022-12-18T02:11:23;33.83;;;14.57;;
20203;SDS011;10261;49.010;12.034;2022-12-18T02:12:34;27.85;;;12.90;;
20203;SDS011;10261;49.010;12.034;2022-12-18T02:13:45;31.80;;;14.50;;
20203;SDS011;10261;49.010;12.034;2022-12-18T02:14:54;34.28;;;14.93;;
20203;SDS011;10261;49.010;12.034;2022-12-18T02:16:03;29.52;;;13.43;;
20203;SDS011;10261;49.010;12.034;2022-12-18T02:17:15;35.10;;;15.90;;
20203;SDS011;10261;49.010;12.034;2022-12-18T02:18:20;35.20;;;16.00;;
20203;SDS011;10261;49.010;12.034;2022-12-18T02:19:30;29.13;;;13.05;;
20203;SDS011;10261;49.010;12.034;2022-12-18T02:20:48;31.27;;;14.70;;
20203;SDS011;10261;49.010;12.034;2022-12-18T02:21:57;30.58;;;15.45;;
20203;SDS011;10261;49.010;12.034;2022-12-18T02:23:11;34.22;;;14.80;;
20203;SDS011;10261;49.010;12.034;2022-12-18T02:24:28;28.75;;;13.05;;
20203;SDS011;10261;49.010;12.034;2022-12-18T02:27:06;30.58;;;14.50;;
20203;SDS011;10261;49.010;12.034;2022-12-18T02:28:11;34.15;;;15.27;;
20203;SDS011;10261;49.010;12.034;2022-12-18T02:29:20;29.75;;;14.85;;
20203;SDS011;10261;49.010;12.034;2022-12-18T02:30:24;32.13;;;15.23;;
20203;SDS011;10261;49.010;12.034;2022-12-18T02:31:29;30.83;;;15.02;;
20203;SDS011;10261;49.010;12.034;2022-12-18T02:32:34;36.17;;;15.20;;
20203;SDS011;10261;49.010;12.034;2022-12-18T02:33:41;36.00;;;14.02;;
20203;SDS011;10261;49.010;12.034;2022-12-18T02:34:45;34.60;;;15.30;;
20203;SDS011;10261;49.010;12.034;2022-12-18T02:35:50;32.90;;;16.38;;
20203;SDS011;10261;49.010;12.034;2022-12-18T02:36:55;35.38;;;16.70;;
20203;SDS011;10261;49.010;12.034;2022-12-18T02:38:00;29.40;;;14.98;;
20203;SDS011;10261;49.010;12.034;2022-12-18T02:39:04;35.92;;;14.65;;
20203;SDS011;10261;49.010;12.034;2022-12-18T02:40:09;37.67;;;14.65;;
20203;SDS011;10261;49.010;12.034;2022-12-18T02:41:15;32.30;;;15.13;;
20203;SDS011;10261;49.010;12.034;2022-12-18T02:42:19;33.78;;;14.52;;
20203;SDS011;10261;49.010;12.034;2022-12-18T02:43:21;31.85;;;13.68;;
20203;SDS011;10261;49.010;12.034;2022-12-18T02:44:24;27.20;;;14.57;;
20203;SDS011;10261;49.010;12.034;2022-12-18T02:45:26;28.40;;;13.25;;
20203;SDS011;10261;49.010;12.034;2022-12-18T02:46:31;37.08;;;14.90;;
20203;SDS011;10261;49.010;12.034;2022-12-18T02:47:36;26.55;;;14.00;;
20203;SDS011;10261;49.010;12.034;2022-12-18T02:48:42;27.00;;;13.20;;
20203;SDS011;10261;49.010;12.034;2022-12-18T02:49:48;28.25;;;12.57;;
20203;SDS011;10261;49.010;12.034;2022-12-18T02:50:59;27.65;;;12.00;;
20203;SDS011;10261;49.010;12.034;2022-12-18T02:52:12;29.30;;;13.32;;
20203;SDS011;10261;49.010;12.034;2022-12-18T02:53:21;22.83;;;12.13;;
20203;SDS011;10261;49.010;12.034;2022-12-18T02:54:34;28.42;;;13.48;;
20203;SDS011;10261;49.010;12.034;2022-12-18T02:55:48;28.45;;;12.60;;
20203;SDS011;10261;49.010;12.034;2022-12-18T02:57:03;24.27;;;12.52;;
20203;SDS011;10261;49.010;12.034;2022-12-18T02:58:14;24.25;;;11.88;;
20203;SDS011;10261;49.010;12.034;2022-12-18T02:59:21;31.13;;;13.20;;
20203;SDS011;10261;49.010;12.034;2022-12-18T03:00:32;24.80;;;12.43;;
20203;SDS011;10261;49.010;12.034;2022-12-18T03:01:39;21.83;;;11.60;;
20203;SDS011;10261;49.010;12.034;2022-12-18T03:02:48;25.77;;;12.18;;
20203;SDS011;10261;49.010;12.034;2022-12-18T03:03:57;26.98;;;12.77;;
20203;SDS011;10261;49.010;12.034;2022-12-18T03:05:04;24.50;;;11.70;;
20203;SDS011;10261;49.010;12.034;2022-12-18T03:06:14;27.85;;;13.63;;
20203;SDS011;10261;49.010;12.034;2022-12-18T03:07:23;30.85;;;13.32;;
20203;SDS011;10261;49.010;12.034;2022-12-18T03:08:31;31.55;;;13.02;;
20203;SDS011;10261;49.010;12.034;2022-12-18T03:09:38;29.90;;;13.65;;
20203;SDS011;10261;49.010;12.034;2022-12-18T03:10:48;25.35;;;12.65;;
20203;SDS011;10261;49.010;12.034;2022-12-18T03:11:56;27.75;;;12.68;;
20203;SDS011;10261;49.010;12.034;2022-12-18T03:13:23;34.22;;;14.13;;
20203;SDS011;10261;49.010;12.034;2022-12-18T03:14:30;25.65;;;11.95;;
20203;SDS011;10261;49.010;12.034;2022-12-18T03:15:36;27.45;;;12.98;;
20203;SDS011;10261;49.010;12.034;2022-12-18T03:16:41;32.28;;;13.50;;
20203;SDS011;10261;49.010;12.034;2022-12-18T03:17:46;24.58;;;13.45;;
20203;SDS011;10261;49.010;12.034;2022-12-18T03:18:53;29.02;;;12.77;;
20203;SDS011;10261;49.010;12.034;2022-12-18T03:19:59;22.50;;;10.48;;
20203;SDS011;10261;49.010;12.034;2022-12-18T03:21:07;25.40;;;12.13;;
20203;SDS011;10261;49.010;12.034;2022-12-18T03:22:12;21.33;;;10.60;;
20203;SDS011;10261;49.010;12.034;2022-12-18T03:23:20;25.27;;;11.18;;
20203;SDS011;10261;49.010;12.034;2022-12-18T03:24:27;28.30;;;11.77;;
20203;SDS011;10261;49.010;12.034;2022-12-18T03:25:33;23.50;;;11.27;;
20203;SDS011;10261;49.010;12.034;2022-12-18T03:26:41;23.63;;;11.52;;
20203;SDS011;10261;49.010;12.034;2022-12-18T03:27:47;26.88;;;11.90;;
20203;SDS011;10261;49.010;12.034;2022-12-18T03:28:55;24.63;;;12.07;;
20203;SDS011;10261;49.010;12.034;2022-12-18T03:30:03;21.77;;;11.18;;
20203;SDS011;10261;49.010;12.034;2022-12-18T03:31:09;21.67;;;10.65;;
20203;SDS011;10261;49.010;12.034;2022-12-18T03:32:15;21.58;;;11.05;;
20203;SDS011;10261;49.010;12.034;2022-12-18T03:33:24;22.50;;;12.18;;
20203;SDS011;10261;49.010;12.034;2022-12-18T03:34:30;20.92;;;11.18;;
20203;SDS011;10261;49.010;12.034;2022-12-18T03:35:35;22.70;;;10.20;;
20203;SDS011;10261;49.010;12.034;2022-12-18T03:36:41;20.85;;;11.75;;
20203;SDS011;10261;49.010;12.034;2022-12-18T03:37:44;21.67;;;10.85;;
20203;SDS011;10261;49.010;12.034;2022-12-18T03:38:47;23.58;;;11.05;;
20203;SDS011;10261;49.010;12.034;2022-12-18T03:39:49;21.45;;;10.70;;
20203;SDS011;10261;49.010;12.034;2022-12-18T03:40:53;22.35;;;11.20;;
20203;SDS011;10261;49.010;12.034;2022-12-18T03:42:01;24.13;;;11.10;;
20203;SDS011;10261;49.010;12.034;2022-12-18T03:43:10;21.98;;;11.38;;
20203;SDS011;10261;49.010;12.034;2022-12-18T03:44:20;22.38;;;10.13;;
20203;SDS011;10261;49.010;12.034;2022-12-18T03:45:31;21.30;;;10.90;;
20203;SDS011;10261;49.010;12.034;2022-12-18T03:46:40;28.10;;;12.10;;
20203;SDS011;10261;49.010;12.034;2022-12-18T03:47:49;21.63;;;11.20;;
20203;SDS011;10261;49.010;12.034;2022-12-18T03:49:01;22.52;;;11.80;;
20203;SDS011;10261;49.010;12.034;2022-12-18T03:50:12;20.73;;;10.57;;
20203;SDS011;10261;49.010;12.034;2022-12-18T03:51:18;19.90;;;9.80;;
20203;SDS011;10261;49.010;12.034;2022-12-18T03:52:27;21.67;;;11.00;;
20203;SDS011;10261;49.010;12.034;2022-12-18T03:53:35;24.77;;;11.65;;
20203;SDS011;10261;49.010;12.034;2022-12-18T03:54:44;25.85;;;11.95;;
20203;SDS011;10261;49.010;12.034;2022-12-18T03:55:47;27.90;;;12.32;;
20203;SDS011;10261;49.010;12.034;2022-12-18T03:56:53;22.60;;;12.30;;
20203;SDS011;10261;49.010;12.034;2022-12-18T03:57:59;18.70;;;10.40;;
20203;SDS011;10261;49.010;12.034;2022-12-18T03:59:04;24.38;;;10.60;;
20203;SDS011;10261;49.010;12.034;2022-12-18T04:00:09;25.35;;;10.90;;
20203;SDS011;10261;49.010;12.034;2022-12-18T04:01:15;20.45;;;11.10;;
20203;SDS011;10261;49.010;12.034;2022-12-18T04:02:19;26.70;;;11.50;;
20203;SDS011;10261;49.010;12.034;2022-12-18T04:03:24;26.55;;;13.23;;
20203;SDS011;10261;49.010;12.034;2022-12-18T04:04:30;28.17;;;13.73;;
20203;SDS011;10261;49.010;12.034;2022-12-18T04:05:34;25.25;;;11.73;;
20203;SDS011;10261;49.010;12.034;2022-12-18T04:06:38;20.35;;;11.88;;
20203;SDS011;10261;49.010;12.034;2022-12-18T04:07:42;24.27;;;11.90;;
20203;SDS011;10261;49.010;12.034;2022-12-18T04:08:46;23.92;;;11.25;;
20203;SDS011;10261;49.010;12.034;2022-12-18T04:09:49;27.60;;;12.07;;
20203;SDS011;10261;49.010;12.034;2022-12-18T04:10:54;22.67;;;11.68;;
20203;SDS011;10261;49.010;12.034;2022-12-18T04:11:57;26.45;;;13.02;;
20203;SDS011;10261;49.010;12.034;2022-12-18T04:12:59;23.80;;;12.48;;
20203;SDS011;10261;49.010;12.034;2022-12-18T04:14:02;21.63;;;11.10;;
20203;SDS011;10261;49.010;12.034;2022-12-18T04:15:09;22.70;;;11.27;;
20203;SDS011;10261;49.010;12.034;2022-12-18T04:16:13;20.67;;;10.60;;
20203;SDS011;10261;49.010;12.034;2022-12-18T04:17:16;20.25;;;11.63;;
20203;SDS011;10261;49.010;12.034;2022-12-18T04:18:19;20.67;;;10.80;;
20203;SDS011;10261;49.010;12.034;2022-12-18T04:19:20;28.85;;;11.70;;
20203;SDS011;10261;49.010;12.034;2022-12-18T04:20:23;20.30;;;11.05;;
20203;SDS011;10261;49.010;12.034;2022-12-18T04:21:25;23.40;;;11.88;;
20203;SDS011;10261;49.010;12.034;2022-12-18T04:22:28;25.23;;;13.30;;
20203;SDS011;10261;49.010;12.034;2022-12-18T04:23:30;23.67;;;11.38;;
20203;SDS011;10261;49.010;12.034;2022-12-18T04:24:33;20.80;;;11.27;;
20203;SDS011;10261;49.010;12.034;2022-12-18T04:25:35;18.85;;;10.15;;
20203;SDS011;10261;49.010;12.034;2022-12-18T04:26:38;25.23;;;11.65;;
20203;SDS011;10261;49.010;12.034;2022-12-18T04:27:40;23.42;;;11.25;;
20203;SDS011;10261;49.010;12.034;2022-12-18T04:28:43;24.02;;;10.40;;
20203;SDS011;10261;49.010;12.034;2022-12-18T04:29:45;21.65;;;10.50;;
20203;SDS011;10261;49.010;12.034;2022-12-18T04:30:50;23.50;;;10.00;;
20203;SDS011;10261;49.010;12.034;2022-12-18T04:31:52;23.58;;;11.40;;
20203;SDS011;10261;49.010;12.034;2022-12-18T04:32:55;20.83;;;10.23;;
20203;SDS011;10261;49.010;12.034;2022-12-18T04:33:57;20.67;;;10.45;;
20203;SDS011;10261;49.010;12.034;2022-12-18T04:35:00;20.23;;;10.35;;
20203;SDS011;10261;49.010;12.034;2022-12-18T04:36:02;23.85;;;11.48;;
20203;SDS011;10261;49.010;12.034;2022-12-18T04:37:05;22.13;;;11.32;;
20203;SDS011;10261;49.010;12.034;2022-12-18T04:38:07;24.95;;;10.85;;
20203;SDS011;10261;49.010;12.034;2022-12-18T04:39:11;23.17;;;9.70;;
20203;SDS011;10261;49.010;12.034;2022-12-18T04:40:14;20.58;;;10.93;;
20203;SDS011;10261;49.010;12.034;2022-12-18T04:41:16;24.13;;;13.07;;
20203;SDS011;10261;49.010;12.034;2022-12-18T04:42:19;23.20;;;12.27;;
20203;SDS011;10261;49.010;12.034;2022-12-18T04:43:21;22.17;;;11.57;;
20203;SDS011;10261;49.010;12.034;2022-12-18T04:44:24;19.48;;;10.75;;
20203;SDS011;10261;49.010;12.034;2022-12-18T04:45:26;22.08;;;10.80;;
20203;SDS011;10261;49.010;12.034;2022-12-18T04:46:30;20.45;;;10.32;;
20203;SDS011;10261;49.010;12.034;2022-12-18T04:47:32;20.95;;;10.95;;
20203;SDS011;10261;49.010;12.034;2022-12-18T04:48:35;19.67;;;10.07;;
20203;SDS011;10261;49.010;12.034;2022-12-18T04:49:37;20.85;;;11.57;;
20203;SDS011;10261;49.010;12.034;2022-12-18T04:50:40;22.25;;;11.55;;
20203;SDS011;10261;49.010;12.034;2022-12-18T04:51:42;21.38;;;10.02;;
20203;SDS011;10261;49.010;12.034;2022-12-18T04:52:45;19.95;;;11.55;;
20203;SDS011;10261;49.010;12.034;2022-12-18T04:53:47;19.70;;;11.00;;
20203;SDS011;10261;49.010;12.034;2022-12-18T04:54:50;19.67;;;11.13;;
20203;SDS011;10261;49.010;12.034;2022-12-18T04:56:01;24.52;;;11.77;;
20203;SDS011;10261;49.010;12.034;2022-12-18T04:57:05;24.75;;;11.50;;
20203;SDS011;10261;49.010;12.034;2022-12-18T04:58:07;21.55;;;11.82;;
20203;SDS011;10261;49.010;12.034;2022-12-18T04:59:10;22.40;;;12.00;;
20203;SDS011;10261;49.010;12.034;2022-12-18T05:00:12;26.63;;;11.75;;
20203;SDS011;10261;49.010;12.034;2022-12-18T05:01:16;18.45;;;11.23;;
20203;SDS011;10261;49.010;12.034;2022-12-18T05:02:20;25.65;;;11.02;;
20203;SDS011;10261;49.010;12.034;2022-12-18T05:03:24;20.58;;;11.27;;
20203;SDS011;10261;49.010;12.034;2022-12-18T05:04:26;22.95;;;11.57;;
20203;SDS011;10261;49.010;12.034;2022-12-18T05:05:29;22.33;;;10.35;;
20203;SDS011;10261;49.010;12.034;2022-12-18T05:06:31;21.63;;;11.15;;
20203;SDS011;10261;49.010;12.034;2022-12-18T05:07:34;22.10;;;10.40;;
20203;SDS011;10261;49.010;12.034;2022-12-18T05:08:36;21.58;;;10.55;;
20203;SDS011;10261;49.010;12.034;2022-12-18T05:09:39;23.52;;;11.57;;
20203;SDS011;10261;49.010;12.034;2022-12-18T05:10:41;22.58;;;11.48;;
20203;SDS011;10261;49.010;12.034;2022-12-18T05:11:46;18.63;;;9.98;;
20203;SDS011;10261;49.010;12.034;2022-12-18T05:12:48;22.55;;;11.80;;
20203;SDS011;10261;49.010;12.034;2022-12-18T05:14:01;24.17;;;10.60;;
20203;SDS011;10261;49.010;12.034;2022-12-18T05:15:04;24.17;;;10.20;;
20203;SDS011;10261;49.010;12.034;2022-12-18T05:16:08;18.63;;;9.65;;
20203;SDS011;10261;49.010;12.034;2022-12-18T05:17:10;20.10;;;10.40;;
20203;SDS011;10261;49.010;12.034;2022-12-18T05:18:14;21.13;;;10.80;;
20203;SDS011;10261;49.010;12.034;2022-12-18T05:19:17;23.73;;;10.55;;
20203;SDS011;10261;49.010;12.034;2022-12-18T05:20:20;19.83;;;10.85;;
20203;SDS011;10261;49.010;12.034;2022-12-18T05:21:22;20.83;;;11.25;;
20203;SDS011;10261;49.010;12.034;2022-12-18T05:22:25;24.08;;;11.05;;
20203;SDS011;10261;49.010;12.034;2022-12-18T05:23:27;24.50;;;11.70;;
20203;SDS011;10261;49.010;12.034;2022-12-18T05:24:31;18.33;;;9.70;;
20203;SDS011;10261;49.010;12.034;2022-12-18T05:25:33;17.77;;;9.50;;
20203;SDS011;10261;49.010;12.034;2022-12-18T05:26:36;16.48;;;9.15;;
20203;SDS011;10261;49.010;12.034;2022-12-18T05:27:38;19.15;;;8.00;;
20203;SDS011;10261;49.010;12.034;2022-12-18T05:28:41;20.30;;;9.23;;
20203;SDS011;10261;49.010;12.034;2022-12-18T05:29:43;17.40;;;10.10;;
20203;SDS011;10261;49.010;12.034;2022-12-18T05:30:47;21.65;;;10.35;;
20203;SDS011;10261;49.010;12.034;2022-12-18T05:31:50;17.98;;;9.05;;
20203;SDS011;10261;49.010;12.034;2022-12-18T05:32:54;20.88;;;8.50;;
20203;SDS011;10261;49.010;12.034;2022-12-18T05:33:57;18.70;;;9.90;;
20203;SDS011;10261;49.010;12.034;2022-12-18T05:35:00;17.33;;;8.85;;
20203;SDS011;10261;49.010;12.034;2022-12-18T05:36:03;23.00;;;10.88;;
20203;SDS011;10261;49.010;12.034;2022-12-18T05:37:07;19.17;;;9.90;;
20203;SDS011;10261;49.010;12.034;2022-12-18T05:38:09;16.55;;;8.50;;
20203;SDS011;10261;49.010;12.034;2022-12-18T05:39:12;21.60;;;9.80;;
20203;SDS011;10261;49.010;12.034;2022-12-18T05:40:14;20.15;;;11.23;;
20203;SDS011;10261;49.010;12.034;2022-12-18T05:41:17;24.65;;;11.45;;
20203;SDS011;10261;49.010;12.034;2022-12-18T05:42:19;31.00;;;10.80;;
20203;SDS011;10261;49.010;12.034;2022-12-18T05:43:23;19.08;;;9.68;;
20203;SDS011;10261;49.010;12.034;2022-12-18T05:44:25;18.15;;;9.45;;
20203;SDS011;10261;49.010;12.034;2022-12-18T05:45:28;22.05;;;9.60;;
20203;SDS011;10261;49.010;12.034;2022-12-18T05:46:30;21.67;;;11.00;;
20203;SDS011;10261;49.010;12.034;2022-12-18T05:47:33;21.98;;;11.25;;
20203;SDS011;10261;49.010;12.034;2022-12-18T05:48:35;24.50;;;11.40;;
20203;SDS011;10261;49.010;12.034;2022-12-18T05:49:39;19.85;;;10.70;;
20203;SDS011;10261;49.010;12.034;2022-12-18T05:50:42;19.40;;;10.40;;
20203;SDS011;10261;49.010;12.034;2022-12-18T05:51:46;22.20;;;9.85;;
20203;SDS011;10261;49.010;12.034;2022-12-18T05:52:48;20.20;;;11.23;;
20203;SDS011;10261;49.010;12.034;2022-12-18T05:53:51;24.90;;;12.48;;
20203;SDS011;10261;49.010;12.034;2022-12-18T05:54:53;22.40;;;10.38;;
20203;SDS011;10261;49.010;12.034;2022-12-18T05:55:59;23.85;;;11.65;;
20203;SDS011;10261;49.010;12.034;2022-12-18T05:57:01;23.80;;;11.60;;
20203;SDS011;10261;49.010;12.034;2022-12-18T05:58:05;23.58;;;11.88;;
20203;SDS011;10261;49.010;12.034;2022-12-18T05:59:08;21.63;;;10.43;;
20203;SDS011;10261;49.010;12.034;2022-12-18T06:00:11;24.08;;;12.32;;
20203;SDS011;10261;49.010;12.034;2022-12-18T06:01:15;24.80;;;11.38;;
20203;SDS011;10261;49.010;12.034;2022-12-18T06:02:20;18.00;;;9.57;;
20203;SDS011;10261;49.010;12.034;2022-12-18T06:03:22;23.52;;;12.05;;
20203;SDS011;10261;49.010;12.034;2022-12-18T06:04:33;21.05;;;11.02;;
20203;SDS011;10261;49.010;12.034;2022-12-18T06:05:37;22.33;;;10.52;;
20203;SDS011;10261;49.010;12.034;2022-12-18T06:06:42;23.25;;;11.48;;
20203;SDS011;10261;49.010;12.034;2022-12-18T06:07:44;24.42;;;12.27;;
20203;SDS011;10261;49.010;12.034;2022-12-18T06:08:47;26.25;;;10.98;;
20203;SDS011;10261;49.010;12.034;2022-12-18T06:09:49;20.67;;;10.77;;
20203;SDS011;10261;49.010;12.034;2022-12-18T06:10:52;24.95;;;11.60;;
20203;SDS011;10261;49.010;12.034;2022-12-18T06:11:54;24.92;;;11.07;;
20203;SDS011;10261;49.010;12.034;2022-12-18T06:12:57;22.88;;;10.20;;
20203;SDS011;10261;49.010;12.034;2022-12-18T06:13:59;22.98;;;11.07;;
20203;SDS011;10261;49.010;12.034;2022-12-18T06:15:03;20.42;;;10.68;;
20203;SDS011;10261;49.010;12.034;2022-12-18T06:16:06;21.40;;;10.93;;